Time;durP1;ratioP1;P1;durP2;ratioP2;P2;SDS_P1;SDS_P2;PMS_P1;PMS_P2;Temp;Humidity;BMP_temperature;BMP_pressure;BME280_temperature;BME280_humidity;BME280_pressure;Samples;Min_cycle;Max_cycle;Signal;HPM_P1;HPM_P2
2022/10/04 00:00:28;;;;;;;8.88;4.13;;;14.50;99.90;;;;;;5091256;28;20024;-43
2022/10/04 00:02:58;;;;;;;;;;;14.50;99.90;;;;;;5092453;28;20051;-43
2022/10/04 00:05:25;;;;;;;7.68;3.72;;;14.50;99.90;;;;;;5084038;28;20360;-42
2022/10/04 00:08:00;;;;;;;10.93;4.40;;;14.50;99.90;;;;;;5093783;28;20020;-46
2022/10/04 00:10:30;;;;;;;10.77;4.57;;;14.50;99.90;;;;;;5091040;28;20095;-44
2022/10/04 00:13:02;;;;;;;6.88;3.97;;;14.50;99.90;;;;;;5095016;28;20017;-42
2022/10/04 00:15:32;;;;;;;6.53;3.50;;;14.50;99.90;;;;;;5084745;28;20031;-42
2022/10/04 00:18:22;;;;;;;9.35;4.35;;;14.50;99.90;;;;;;5084367;28;20036;-42
2022/10/04 00:20:49;;;;;;;10.80;4.13;;;14.50;99.90;;;;;;5088691;28;20036;-38
2022/10/04 00:23:36;;;;;;;7.72;3.67;;;14.50;99.90;;;;;;5090478;28;20032;-45
2022/10/04 00:26:11;;;;;;;8.13;4.03;;;14.50;99.90;;;;;;5083930;28;20494;-39
2022/10/04 00:28:38;;;;;;;6.95;3.78;;;14.50;99.90;;;;;;5094468;28;20588;-38
2022/10/04 00:31:10;;;;;;;22.85;4.45;;;14.50;99.90;;;;;;5083279;28;20036;-34
2022/10/04 00:33:43;;;;;;;6.97;3.80;;;14.50;99.90;;;;;;5087976;28;20020;-33
2022/10/04 00:36:23;;;;;;;7.07;4.15;;;14.50;99.90;;;;;;5079869;28;20028;-38
2022/10/04 00:39:04;;;;;;;7.53;4.10;;;14.50;99.90;;;;;;5080256;28;20082;-33
2022/10/04 00:41:50;;;;;;;9.80;4.50;;;14.50;99.90;;;;;;5090335;28;20036;-36
2022/10/04 00:44:28;;;;;;;15.45;4.43;;;14.50;99.90;;;;;;5092897;28;20024;-41
2022/10/04 00:46:57;;;;;;;8.63;4.15;;;14.50;99.90;;;;;;5076654;28;20155;-36
2022/10/04 00:49:44;;;;;;;7.88;4.07;;;14.50;99.90;;;;;;5079702;28;20494;-46
2022/10/04 00:52:18;;;;;;;16.30;4.85;;;14.40;99.90;;;;;;5088353;28;20028;-49
2022/10/04 00:54:56;;;;;;;7.90;3.53;;;14.40;99.90;;;;;;5093673;28;20028;-51
2022/10/04 00:57:28;;;;;;;11.10;4.20;;;14.40;99.90;;;;;;5091460;28;20035;-42
2022/10/04 01:00:07;;;;;;;15.30;4.45;;;14.50;99.90;;;;;;5088089;28;20113;-42
2022/10/04 01:02:46;;;;;;;11.43;3.72;;;14.40;99.90;;;;;;5085524;28;20028;-39
2022/10/04 01:05:25;;;;;;;8.13;4.00;;;14.40;99.90;;;;;;5059755;28;20562;-40
2022/10/04 01:08:03;;;;;;;6.95;4.03;;;14.40;99.90;;;;;;5082190;28;20024;-39
2022/10/04 01:10:55;;;;;;;17.95;4.30;;;14.40;99.90;;;;;;5081144;28;20056;-41
2022/10/04 01:13:26;;;;;;;9.43;4.13;;;14.40;99.90;;;;;;5093190;28;20016;-33
2022/10/04 01:16:08;;;;;;;7.57;4.10;;;14.40;99.90;;;;;;5094256;28;20492;-34
2022/10/04 01:18:35;;;;;;;13.95;4.45;;;14.30;99.90;;;;;;5073239;28;20068;-36
2022/10/04 01:21:15;;;;;;;8.77;4.40;;;14.30;99.90;;;;;;5082386;28;20028;-35
2022/10/04 01:23:45;;;;;;;14.13;5.40;;;14.20;99.90;;;;;;5087387;28;20511;-35
2022/10/04 01:26:29;;;;;;;9.95;4.40;;;14.20;99.90;;;;;;5079992;28;20032;-35
2022/10/04 01:28:57;;;;;;;5.90;4.00;;;14.20;99.90;;;;;;5085981;28;20561;-36
2022/10/04 01:31:27;;;;;;;8.57;4.60;;;14.10;99.90;;;;;;5089503;28;20461;-35
2022/10/04 01:33:54;;;;;;;13.45;5.18;;;14.10;99.90;;;;;;5058318;28;20043;-39
2022/10/04 01:36:20;;;;;;;13.60;5.60;;;14.10;99.90;;;;;;5091658;28;20524;-35
2022/10/04 01:38:46;;;;;;;7.68;4.78;;;14.00;99.90;;;;;;5081947;28;20031;-37
2022/10/04 01:41:16;;;;;;;7.40;4.65;;;14.00;99.90;;;;;;5088773;28;20485;-41
2022/10/04 01:43:46;;;;;;;13.85;5.40;;;13.90;99.90;;;;;;5091820;28;20480;-39
2022/10/04 01:46:27;;;;;;;7.80;4.97;;;13.90;99.90;;;;;;5073931;28;20523;-35
2022/10/04 01:48:56;;;;;;;11.90;5.00;;;13.80;99.90;;;;;;5091899;28;20476;-32
2022/10/04 01:51:30;;;;;;;12.55;5.20;;;13.80;99.90;;;;;;5080808;28;20158;-40
2022/10/04 01:54:10;;;;;;;10.90;4.32;;;13.80;99.90;;;;;;5068279;28;20464;-41
2022/10/04 01:57:01;;;;;;;9.15;4.85;;;13.70;99.90;;;;;;5091129;28;20526;-40
2022/10/04 01:59:32;;;;;;;8.55;5.05;;;13.70;99.90;;;;;;5091772;28;20024;-41
2022/10/04 02:02:16;;;;;;;12.65;5.35;;;13.70;99.90;;;;;;5091982;28;20232;-42
2022/10/04 02:04:43;;;;;;;10.02;6.13;;;13.60;99.90;;;;;;5087450;28;20028;-39
2022/10/04 02:07:14;;;;;;;8.73;5.88;;;13.50;99.90;;;;;;5089679;28;20392;-41
2022/10/04 02:09:43;;;;;;;12.60;6.00;;;13.50;99.90;;;;;;5059865;28;20036;-38
2022/10/04 02:12:15;;;;;;;9.75;5.75;;;13.50;99.90;;;;;;5079621;28;20028;-42
2022/10/04 02:14:47;;;;;;;13.38;7.05;;;13.50;99.90;;;;;;5076082;28;20025;-46
2022/10/04 02:17:17;;;;;;;13.52;5.88;;;13.40;99.90;;;;;;5076165;28;20467;-42
2022/10/04 02:19:43;;;;;;;13.32;5.65;;;13.40;99.90;;;;;;5089018;28;20069;-35
2022/10/04 02:22:10;;;;;;;13.75;6.40;;;13.40;99.90;;;;;;5091574;28;20379;-42
2022/10/04 02:24:45;;;;;;;13.52;6.07;;;13.30;99.90;;;;;;5092602;28;20028;-48
2022/10/04 02:27:11;;;;;;;10.80;5.85;;;13.40;99.90;;;;;;5084865;28;20043;-49
2022/10/04 02:29:37;;;;;;;17.23;5.97;;;13.30;99.90;;;;;;5076725;28;20039;-41
2022/10/04 02:34:53;;;;;;;10.90;4.97;;;13.30;99.90;;;;;;5078609;28;20116;-43
2022/10/04 02:37:21;;;;;;;;;;;13.20;99.90;;;;;;5088243;28;20035;-43
2022/10/04 02:39:51;;;;;;;12.90;6.82;;;13.20;99.90;;;;;;5090871;28;20380;-48
2022/10/04 02:42:27;;;;;;;12.05;5.60;;;13.20;99.90;;;;;;5089791;28;20110;-41
2022/10/04 02:45:26;;;;;;;11.18;5.43;;;13.20;99.90;;;;;;5073244;28;20575;-44
2022/10/04 02:48:01;;;;;;;7.90;5.13;;;13.10;99.90;;;;;;5052313;28;20043;-54
2022/10/04 02:50:34;;;;;;;17.20;5.72;;;13.10;99.90;;;;;;5082078;28;20499;-53
2022/10/04 02:53:25;;;;;;;17.67;6.22;;;13.10;99.90;;;;;;5078096;28;20608;-55
2022/10/04 02:55:51;;;;;;;13.40;5.95;;;13.00;99.90;;;;;;5092347;28;20113;-45
2022/10/04 02:58:20;;;;;;;12.32;5.57;;;13.00;99.90;;;;;;5088955;28;20060;-39
2022/10/04 03:00:59;;;;;;;12.88;6.03;;;13.00;99.90;;;;;;5092504;28;20117;-53
2022/10/04 03:03:28;;;;;;;13.27;5.72;;;13.00;99.90;;;;;;5076835;28;20515;-44
2022/10/04 03:05:59;;;;;;;9.48;6.13;;;13.00;99.90;;;;;;5092513;28;20470;-45
2022/10/04 03:08:27;;;;;;;12.90;5.25;;;12.90;99.90;;;;;;5089579;28;20020;-32
2022/10/04 03:10:54;;;;;;;14.18;6.15;;;12.90;99.90;;;;;;5090952;28;20031;-36
2022/10/04 03:13:20;;;;;;;14.52;6.13;;;12.90;99.90;;;;;;5084777;28;20031;-36
2022/10/04 03:15:48;;;;;;;10.73;5.75;;;12.90;99.90;;;;;;5089566;28;20035;-44
2022/10/04 03:18:14;;;;;;;;;;;12.90;99.90;;;;;;5092546;28;20431;-41
2022/10/04 03:20:40;;;;;;;14.95;6.30;;;12.90;99.90;;;;;;5087591;28;20035;-42
2022/10/04 03:23:07;;;;;;;10.95;5.70;;;12.90;99.90;;;;;;5081493;28;20020;-35
2022/10/04 03:25:43;;;;;;;10.27;5.85;;;12.90;99.90;;;;;;5085157;28;20038;-37
2022/10/04 03:28:09;;;;;;;10.20;5.40;;;12.90;99.90;;;;;;5088244;28;20080;-35
2022/10/04 03:30:35;;;;;;;19.65;6.38;;;12.90;99.90;;;;;;5088992;28;20055;-36
2022/10/04 03:33:02;;;;;;;10.40;6.05;;;12.80;99.90;;;;;;5091728;28;20545;-37
2022/10/04 03:35:32;;;;;;;15.68;6.68;;;12.80;99.90;;;;;;5083243;28;20027;-45
2022/10/04 03:37:58;;;;;;;17.45;6.25;;;12.80;99.90;;;;;;5091097;28;20024;-39
2022/10/04 03:40:28;;;;;;;13.50;5.32;;;12.80;99.90;;;;;;5089139;28;20043;-39
2022/10/04 03:42:55;;;;;;;7.20;5.82;;;12.70;99.90;;;;;;5094913;28;20073;-41
2022/10/04 03:45:22;;;;;;;15.05;6.40;;;12.70;99.90;;;;;;5075134;28;20028;-39
2022/10/04 03:47:52;;;;;;;10.02;6.85;;;12.70;99.90;;;;;;5091513;28;20034;-40
2022/10/04 03:50:24;;;;;;;14.23;6.70;;;12.60;99.90;;;;;;5091643;28;20384;-40
2022/10/04 03:52:55;;;;;;;15.57;6.13;;;12.60;99.90;;;;;;5092080;28;20552;-35
2022/10/04 03:55:29;;;;;;;16.33;6.25;;;12.60;99.90;;;;;;5094595;28;20024;-42
2022/10/04 03:57:55;;;;;;;11.52;5.43;;;12.60;99.90;;;;;;5093093;28;20484;-43
2022/10/04 04:00:21;;;;;;;12.23;6.43;;;12.50;99.90;;;;;;5094451;28;20107;-46
2022/10/04 04:02:57;;;;;;;17.67;6.47;;;12.50;99.90;;;;;;5084449;28;20060;-38
2022/10/04 04:05:30;;;;;;;16.65;6.85;;;12.50;99.90;;;;;;5090580;28;20090;-40
2022/10/04 04:08:22;;;;;;;10.75;5.68;;;12.40;99.90;;;;;;5093928;28;20472;-36
2022/10/04 04:10:51;;;;;;;9.27;5.57;;;12.50;99.90;;;;;;5090677;28;20031;-33
2022/10/04 04:13:26;;;;;;;22.17;7.57;;;12.40;99.90;;;;;;5087167;28;20515;-38
2022/10/04 04:15:54;;;;;;;19.15;7.07;;;12.40;99.90;;;;;;5085974;28;20542;-39
2022/10/04 04:18:25;;;;;;;14.80;8.13;;;12.40;99.90;;;;;;5080325;28;20058;-34
2022/10/04 04:20:57;;;;;;;13.98;6.60;;;12.40;99.90;;;;;;5094811;28;20039;-36
2022/10/04 04:23:35;;;;;;;11.32;6.80;;;12.30;99.90;;;;;;5093261;28;20024;-35
2022/10/04 04:26:26;;;;;;;14.63;5.90;;;12.30;99.90;;;;;;5094387;28;20115;-36
2022/10/04 04:29:02;;;;;;;12.65;7.28;;;12.30;99.90;;;;;;5043522;28;20081;-34
2022/10/04 04:31:35;;;;;;;10.38;6.60;;;12.20;99.90;;;;;;5047994;28;20481;-35
2022/10/04 04:34:14;;;;;;;12.43;6.45;;;12.10;99.90;;;;;;5049477;28;20035;-38
2022/10/04 04:36:40;;;;;;;16.40;7.70;;;12.10;99.90;;;;;;5055386;28;20056;-41
2022/10/04 04:39:33;;;;;;;18.33;7.43;;;12.10;99.90;;;;;;5052962;28;20071;-44
2022/10/04 04:42:01;;;;;;;13.00;6.75;;;12.00;99.90;;;;;;5053887;28;20032;-40
2022/10/04 04:44:28;;;;;;;13.20;6.40;;;12.00;99.90;;;;;;5045361;28;20108;-42
2022/10/04 04:46:55;;;;;;;17.95;7.22;;;11.90;99.90;;;;;;5051687;28;20477;-38
2022/10/04 04:49:22;;;;;;;14.88;7.45;;;11.90;99.90;;;;;;5052026;28;20028;-48
2022/10/04 04:51:50;;;;;;;19.38;8.32;;;11.90;99.90;;;;;;5051383;28;20026;-42
2022/10/04 04:54:22;;;;;;;12.20;5.55;;;11.90;99.90;;;;;;5052163;28;20050;-40
2022/10/04 04:56:53;;;;;;;14.35;8.30;;;11.90;99.90;;;;;;5053020;28;20025;-42
2022/10/04 04:59:21;;;;;;;13.95;8.35;;;11.90;99.90;;;;;;5040952;28;20363;-40
2022/10/04 05:01:49;;;;;;;14.70;7.55;;;11.90;99.90;;;;;;5045103;28;20476;-42
2022/10/04 05:04:18;;;;;;;13.25;7.32;;;12.00;99.90;;;;;;5053119;28;20029;-41
2022/10/04 05:06:59;;;;;;;14.85;7.82;;;11.90;99.90;;;;;;5052161;28;20567;-43
2022/10/04 05:09:31;;;;;;;11.98;6.32;;;11.90;99.90;;;;;;5053559;28;20469;-41
2022/10/04 05:12:06;;;;;;;16.73;8.10;;;11.90;99.90;;;;;;5051474;28;20025;-44
2022/10/04 05:14:36;;;;;;;15.40;7.70;;;11.90;99.90;;;;;;5045672;28;20033;-48
2022/10/04 05:17:02;;;;;;;14.10;8.20;;;11.80;99.90;;;;;;5041007;28;20469;-40
2022/10/04 05:19:35;;;;;;;16.15;7.93;;;11.80;99.90;;;;;;5052869;28;20071;-41
2022/10/04 05:22:08;;;;;;;16.95;8.43;;;11.80;99.90;;;;;;5049974;28;20496;-34
2022/10/04 05:24:37;;;;;;;16.65;7.88;;;11.80;99.90;;;;;;5051639;28;20029;-36
2022/10/04 05:27:24;;;;;;;14.23;7.40;;;11.90;99.90;;;;;;5049193;28;20032;-36
2022/10/04 05:30:49;;;;;;;18.27;8.05;;;11.90;99.90;;;;;;5090318;28;20182;-33
2022/10/04 05:33:23;;;;;;;12.75;7.47;;;11.90;99.90;;;;;;4946813;28;20578;-48
2022/10/04 05:36:04;;;;;;;12.95;7.78;;;11.90;99.90;;;;;;4972364;28;20550;-48
2022/10/04 05:38:38;;;;;;;16.25;8.02;;;11.90;99.90;;;;;;5062643;28;20044;-38
2022/10/04 05:41:20;;;;;;;14.68;7.95;;;11.90;99.90;;;;;;5090615;28;20040;-40
2022/10/04 05:43:49;;;;;;;16.10;8.43;;;11.90;99.90;;;;;;5086046;28;20023;-36
2022/10/04 05:46:17;;;;;;;16.02;7.43;;;11.90;99.90;;;;;;5090143;28;20016;-36
2022/10/04 05:48:45;;;;;;;13.40;7.82;;;12.00;99.90;;;;;;5076885;28;20547;-50
2022/10/04 05:51:17;;;;;;;;;;;11.90;99.90;;;;;;5083211;28;20046;-35
2022/10/04 05:53:43;;;;;;;19.55;7.45;;;11.90;99.90;;;;;;5083910;28;19908;-32
2022/10/04 05:56:40;;;;;;;16.00;7.00;;;12.00;99.90;;;;;;5086622;28;20441;-35
2022/10/04 05:59:11;;;;;;;14.20;7.68;;;12.00;99.90;;;;;;5091922;28;20476;-54
2022/10/04 06:01:45;;;;;;;17.50;7.28;;;11.90;99.90;;;;;;5084122;28;20055;-34
2022/10/04 06:04:32;;;;;;;15.45;7.30;;;12.00;99.90;;;;;;5085445;28;20035;-34
2022/10/04 06:07:20;;;;;;;14.20;6.90;;;11.90;99.90;;;;;;5073054;28;20064;-41
2022/10/04 06:10:04;;;;;;;;;;;11.90;99.90;;;;;;5080767;28;20495;-37
2022/10/04 06:12:32;;;;;;;20.08;7.38;;;11.90;99.90;;;;;;5084932;28;19912;-35
2022/10/04 06:15:20;;;;;;;22.42;7.15;;;11.90;99.90;;;;;;5082647;28;20772;-38
2022/10/04 06:18:10;;;;;;;15.95;7.43;;;12.00;99.90;;;;;;5075236;28;20546;-36
2022/10/04 06:20:42;;;;;;;16.77;8.10;;;11.90;99.90;;;;;;5088263;28;20028;-37
2022/10/04 06:23:29;;;;;;;13.95;6.70;;;11.90;99.90;;;;;;5082725;28;20487;-33
2022/10/04 06:26:10;;;;;;;25.80;8.77;;;11.90;99.90;;;;;;5086069;28;20385;-34
2022/10/04 06:28:38;;;;;;;13.93;6.72;;;11.90;99.90;;;;;;5081705;28;20048;-38
2022/10/04 06:31:24;;;;;;;;;;;11.90;99.90;;;;;;5092656;28;20549;-36
2022/10/04 06:34:05;;;;;;;11.60;6.22;;;12.00;99.90;;;;;;5076392;28;20430;-35
2022/10/04 06:37:04;;;;;;;13.48;6.78;;;11.90;99.90;;;;;;5083469;28;20076;-34
2022/10/04 06:39:30;;;;;;;16.25;6.97;;;12.00;99.90;;;;;;5086166;28;20034;-35
2022/10/04 06:42:15;;;;;;;13.02;7.30;;;12.00;99.90;;;;;;5079088;28;20032;-34
2022/10/04 06:44:49;;;;;;;16.90;7.30;;;12.00;99.90;;;;;;5090271;28;20561;-36
2022/10/04 06:47:20;;;;;;;11.18;7.07;;;12.10;99.90;;;;;;5083484;28;20038;-35
2022/10/04 06:50:23;;;;;;;17.80;7.55;;;12.10;99.90;;;;;;5079227;28;20036;-36
2022/10/04 06:53:29;;;;;;;20.27;8.75;;;12.20;99.90;;;;;;5079466;28;20028;-36
2022/10/04 06:56:10;;;;;;;11.30;6.57;;;12.30;99.90;;;;;;5007548;28;20467;-34
2022/10/04 06:58:58;;;;;;;12.77;6.88;;;12.40;99.90;;;;;;5007048;28;20060;-38
2022/10/04 07:01:31;;;;;;;14.52;6.60;;;12.50;99.90;;;;;;5061669;28;20493;-36
2022/10/04 07:04:19;;;;;;;21.60;7.20;;;12.50;99.90;;;;;;5083389;28;20569;-36
2022/10/04 07:10:30;;;;;;;14.68;6.32;;;12.50;99.90;;;;;;5077282;28;20237;-35
2022/10/04 07:13:08;;;;;;;15.82;6.47;;;12.50;99.90;;;;;;5077306;28;20484;-37
2022/10/04 07:16:08;;;;;;;13.25;7.05;;;12.50;99.90;;;;;;5092289;28;20036;-43
2022/10/04 07:19:07;;;;;;;12.70;6.22;;;12.50;99.90;;;;;;5081942;28;20027;-40
2022/10/04 07:21:58;;;;;;;17.60;6.82;;;12.50;99.90;;;;;;5086398;28;20533;-39
2022/10/04 07:24:44;;;;;;;10.63;6.68;;;12.50;99.90;;;;;;5095053;28;20502;-40
2022/10/04 07:27:17;;;;;;;16.90;6.57;;;12.60;99.90;;;;;;5083568;28;20070;-41
2022/10/04 07:29:45;;;;;;;21.67;7.40;;;12.70;99.90;;;;;;5078554;28;20028;-40
2022/10/04 07:32:13;;;;;;;;;;;12.90;99.90;;;;;;5077453;28;20172;-40
2022/10/04 07:34:55;;;;;;;11.88;6.43;;;13.10;99.90;;;;;;5083723;28;19908;-44
2022/10/04 07:37:21;;;;;;;9.13;6.35;;;13.20;99.90;;;;;;5083611;28;20027;-45
2022/10/04 07:40:01;;;;;;;11.40;5.85;;;13.40;99.90;;;;;;5082488;28;20469;-46
2022/10/04 07:42:59;;;;;;;11.57;6.28;;;13.60;99.90;;;;;;5093361;28;20507;-48
2022/10/04 07:45:29;;;;;;;15.55;7.68;;;13.80;99.90;;;;;;5087122;28;20075;-41
2022/10/04 07:48:18;;;;;;;15.07;6.55;;;13.80;99.90;;;;;;5094730;28;20036;-68
2022/10/04 07:50:56;;;;;;;16.90;6.78;;;13.80;99.90;;;;;;5091895;28;20414;-41
2022/10/04 07:53:29;;;;;;;;;;;13.90;99.90;;;;;;5084699;28;20085;-41
2022/10/04 07:56:10;;;;;;;14.68;5.68;;;13.90;99.90;;;;;;5093687;28;19908;-46
2022/10/04 07:58:42;;;;;;;13.52;6.55;;;14.00;99.90;;;;;;5074772;28;20048;-43
2022/10/04 08:01:17;;;;;;;10.80;5.80;;;14.00;99.90;;;;;;5066782;28;20465;-40
2022/10/04 08:03:55;;;;;;;11.68;6.05;;;14.00;99.90;;;;;;5084882;28;20028;-41
2022/10/04 08:06:45;;;;;;;10.43;5.93;;;14.00;99.90;;;;;;5090114;28;20048;-44
2022/10/04 08:09:32;;;;;;;11.60;5.60;;;14.20;99.90;;;;;;5086623;28;20480;-42
2022/10/04 08:12:19;;;;;;;19.42;5.97;;;14.20;99.90;;;;;;5089962;28;20036;-42
2022/10/04 08:14:53;;;;;;;14.90;4.60;;;14.20;99.90;;;;;;5087664;28;20487;-40
2022/10/04 08:17:34;;;;;;;21.20;6.38;;;14.30;99.90;;;;;;5075621;28;20032;-42
2022/10/04 08:20:27;;;;;;;12.02;5.82;;;14.30;99.90;;;;;;5078338;28;20473;-41
2022/10/04 08:23:25;;;;;;;11.85;5.65;;;14.40;99.90;;;;;;5090634;28;20031;-43
2022/10/04 08:26:06;;;;;;;10.02;5.38;;;14.30;99.90;;;;;;5087312;28;20492;-40
2022/10/04 08:31:55;;;;;;;11.95;5.25;;;14.50;99.90;;;;;;5084550;28;20127;-42
2022/10/04 08:34:51;;;;;;;8.60;5.55;;;14.50;99.90;;;;;;5093734;28;20039;-45
2022/10/04 08:37:38;;;;;;;9.60;4.90;;;14.60;99.90;;;;;;5093769;28;20032;-38
2022/10/04 08:40:25;;;;;;;12.75;6.25;;;14.60;99.90;;;;;;5089562;28;20055;-44
2022/10/04 08:43:02;;;;;;;14.93;5.82;;;14.70;99.90;;;;;;5087127;28;20539;-46
2022/10/04 08:46:14;;;;;;;9.02;5.55;;;14.80;99.90;;;;;;5079622;28;20032;-47
2022/10/04 08:49:23;;;;;;;12.27;5.93;;;14.80;99.90;;;;;;5080778;28;20034;-41
2022/10/04 08:52:22;;;;;;;14.40;5.90;;;14.80;99.90;;;;;;5081836;28;20492;-56
2022/10/04 08:55:06;;;;;;;12.23;5.53;;;14.90;99.90;;;;;;5087510;28;20020;-43
2022/10/04 08:57:44;;;;;;;12.48;4.97;;;15.00;99.90;;;;;;5084377;28;20474;-45
2022/10/04 09:00:12;;;;;;;15.55;6.22;;;15.10;99.90;;;;;;5087141;28;20466;-39
2022/10/04 09:03:09;;;;;;;13.40;5.90;;;15.10;99.90;;;;;;5083664;28;20036;-42
2022/10/04 09:05:45;;;;;;;9.07;5.73;;;15.10;99.90;;;;;;5064064;28;20043;-37
2022/10/04 09:08:22;;;;;;;15.00;6.10;;;15.20;99.90;;;;;;5086836;28;20464;-40
2022/10/04 09:11:00;;;;;;;;;;;15.30;99.90;;;;;;5082534;28;20392;-40
2022/10/04 09:13:54;;;;;;;12.93;5.95;;;15.40;99.90;;;;;;5080407;28;19908;-40
2022/10/04 09:16:41;;;;;;;12.25;6.15;;;15.50;99.90;;;;;;5085246;28;20861;-47
2022/10/04 09:19:19;;;;;;;9.48;5.30;;;15.50;99.90;;;;;;5084178;28;20028;-42
2022/10/04 09:22:06;;;;;;;8.98;5.43;;;15.60;99.90;;;;;;5083980;28;20041;-41
2022/10/04 09:25:02;;;;;;;16.70;5.80;;;15.70;99.90;;;;;;5084489;28;20032;-41
2022/10/04 09:27:57;;;;;;;13.68;6.53;;;15.70;99.90;;;;;;5086123;28;20048;-42
2022/10/04 09:30:32;;;;;;;17.58;6.00;;;15.70;99.90;;;;;;5029405;28;20128;-42
2022/10/04 09:33:29;;;;;;;15.65;5.95;;;15.90;99.90;;;;;;5061566;28;20119;-41
2022/10/04 09:36:10;;;;;;;10.90;6.18;;;16.00;99.90;;;;;;5083043;28;20024;-37
2022/10/04 09:39:03;;;;;;;8.48;4.78;;;16.00;99.90;;;;;;5085780;28;20488;-43
2022/10/04 09:41:46;;;;;;;7.25;5.53;;;15.90;99.90;;;;;;5082590;28;20035;-41
2022/10/04 09:44:33;;;;;;;11.50;5.15;;;16.00;99.90;;;;;;5082923;28;20032;-46
2022/10/04 09:47:44;;;;;;;9.85;5.57;;;16.10;99.90;;;;;;5083940;28;20122;-40
2022/10/04 09:50:34;;;;;;;11.95;5.13;;;16.30;99.90;;;;;;5021747;28;20460;-60
2022/10/04 09:53:26;;;;;;;13.13;5.32;;;16.30;99.90;;;;;;5084519;28;20047;-35
2022/10/04 09:56:10;;;;;;;7.03;4.85;;;16.20;99.90;;;;;;5086439;28;20082;-34
2022/10/04 09:59:08;;;;;;;11.23;5.30;;;16.10;99.90;;;;;;5084461;28;20054;-34
2022/10/04 10:01:58;;;;;;;13.25;5.38;;;16.00;99.90;;;;;;5079886;28;20028;-38
2022/10/04 10:04:59;;;;;;;14.02;5.55;;;16.10;99.90;;;;;;5081508;28;20591;-35
2022/10/04 10:07:58;;;;;;;9.23;4.43;;;16.30;99.90;;;;;;5082889;28;20461;-41
2022/10/04 10:13:51;;;;;;;10.48;4.53;;;16.50;99.90;;;;;;5077399;28;20097;-34
2022/10/04 10:16:43;;;;;;;7.07;4.60;;;16.50;99.90;;;;;;5085602;28;20028;-35
2022/10/04 10:19:17;;;;;;;10.00;4.38;;;16.40;99.90;;;;;;5081753;28;20036;-35
2022/10/04 10:22:16;;;;;;;8.27;4.25;;;16.40;99.90;;;;;;5087103;28;20537;-33
2022/10/04 10:24:53;;;;;;;10.68;4.00;;;16.40;99.90;;;;;;5060798;28;20510;-34
2022/10/04 10:27:19;;;;;;;14.07;5.18;;;16.50;99.90;;;;;;5091851;28;20122;-35
2022/10/04 10:30:02;;;;;;;10.75;5.10;;;16.60;99.90;;;;;;5068195;28;20455;-39
2022/10/04 10:32:52;;;;;;;8.70;4.55;;;16.60;99.90;;;;;;5082964;28;20028;-42
2022/10/04 10:35:38;;;;;;;9.90;4.55;;;16.70;99.90;;;;;;5075751;28;20028;-37
2022/10/04 10:38:28;;;;;;;8.77;4.55;;;16.90;99.90;;;;;;5086277;28;20512;-35
2022/10/04 10:41:31;;;;;;;7.53;4.13;;;17.00;99.90;;;;;;5075103;28;20391;-33
2022/10/04 10:44:18;;;;;;;16.02;5.45;;;17.10;99.90;;;;;;5080117;28;20507;-36
2022/10/04 10:47:04;;;;;;;12.77;5.43;;;17.10;99.90;;;;;;5084032;28;20024;-39
2022/10/04 10:50:07;;;;;;;12.80;3.97;;;17.20;99.90;;;;;;5083142;28;20467;-38
2022/10/04 10:53:10;;;;;;;7.38;4.50;;;17.30;99.90;;;;;;5083470;28;20520;-34
2022/10/04 10:56:07;;;;;;;12.10;4.18;;;17.30;99.90;;;;;;5085036;28;20109;-40
2022/10/04 10:58:54;;;;;;;12.43;5.30;;;17.50;99.90;;;;;;5082677;28;20093;-38
2022/10/04 11:01:38;;;;;;;;;;;17.60;99.90;;;;;;5081868;28;20040;-40
2022/10/04 11:04:25;;;;;;;9.57;3.75;;;17.70;99.90;;;;;;5082917;28;20410;-33
2022/10/04 11:07:12;;;;;;;10.57;4.18;;;17.90;99.90;;;;;;5083040;28;20028;-33
2022/10/04 11:10:14;;;;;;;7.28;4.50;;;18.00;99.90;;;;;;5083651;28;20439;-33
2022/10/04 11:13:01;;;;;;;7.43;4.00;;;18.00;99.90;;;;;;5082332;28;20472;-39
2022/10/04 11:15:38;;;;;;;9.20;4.03;;;18.10;99.90;;;;;;5083460;28;20020;-39
2022/10/04 11:18:15;;;;;;;10.60;3.95;;;18.10;99.90;;;;;;5081888;28;20017;-35
2022/10/04 11:20:44;;;;;;;;;;;18.10;99.90;;;;;;5089190;28;20067;-37
2022/10/04 11:23:47;;;;;;;11.00;4.30;;;18.10;99.90;;;;;;5092088;28;20356;-33
2022/10/04 11:26:38;;;;;;;5.35;4.18;;;18.00;99.90;;;;;;5082675;28;20464;-36
2022/10/04 11:29:29;;;;;;;8.32;3.97;;;18.00;99.90;;;;;;5054619;28;20040;-33
2022/10/04 11:32:21;;;;;;;7.95;3.60;;;18.00;99.90;;;;;;5077710;28;20039;-40
2022/10/04 11:35:24;;;;;;;9.32;4.35;;;17.90;99.90;;;;;;5082938;28;20384;-39
2022/10/04 11:37:56;;;;;;;7.47;3.67;;;17.90;99.90;;;;;;5081759;28;20077;-35
2022/10/04 11:40:24;;;;;;;7.55;3.42;;;17.90;99.90;;;;;;5081616;28;20443;-34
2022/10/04 11:43:06;;;;;;;8.35;3.58;;;18.00;99.90;;;;;;5083594;28;20434;-34
2022/10/04 11:46:01;;;;;;;5.40;3.75;;;18.10;99.90;;;;;;5081565;28;20056;-36
2022/10/04 11:49:08;;;;;;;7.88;3.65;;;18.30;99.90;;;;;;5072404;28;20534;-37
2022/10/04 11:52:03;;;;;;;7.47;3.30;;;18.40;99.90;;;;;;5032841;28;20089;-36
2022/10/04 11:55:02;;;;;;;7.97;3.50;;;18.60;99.90;;;;;;5072145;28;20121;-35
2022/10/04 11:57:54;;;;;;;7.50;3.65;;;18.70;99.90;;;;;;5072181;28;20020;-33
2022/10/04 12:00:23;;;;;;;7.90;3.13;;;18.70;99.90;;;;;;5075876;28;20028;-35
2022/10/04 12:03:20;;;;;;;11.45;4.55;;;18.80;99.90;;;;;;5087361;28;20107;-32
2022/10/04 12:06:36;;;;;;;6.43;3.33;;;18.80;99.90;;;;;;5063519;28;20511;-33
2022/10/04 12:09:20;;;;;;;10.10;3.78;;;18.70;99.90;;;;;;5059220;28;20044;-37
2022/10/04 12:12:38;;;;;;;5.22;3.03;;;18.70;99.90;;;;;;5085635;28;20499;-33
2022/10/04 12:15:25;;;;;;;10.95;4.28;;;18.70;99.90;;;;;;5086043;28;20024;-33
2022/10/04 12:18:18;;;;;;;10.88;4.43;;;19.00;99.90;;;;;;5085387;28;20024;-34
2022/10/04 12:20:52;;;;;;;15.98;3.85;;;19.10;99.90;;;;;;5086014;28;20554;-39
2022/10/04 12:23:55;;;;;;;7.82;3.38;;;19.20;99.90;;;;;;5086160;28;20111;-36
2022/10/04 12:26:56;;;;;;;9.18;3.35;;;19.20;99.90;;;;;;5086747;28;20032;-31
2022/10/04 12:29:39;;;;;;;7.00;3.95;;;19.30;99.90;;;;;;5084169;28;20484;-34
2022/10/04 12:32:23;;;;;;;10.48;4.45;;;19.30;99.90;;;;;;5085034;28;20039;-34
2022/10/04 12:35:01;;;;;;;7.05;3.70;;;19.30;99.90;;;;;;5091520;28;21337;-36
2022/10/04 12:38:06;;;;;;;7.57;3.78;;;19.20;99.90;;;;;;5093206;28;20380;-33
2022/10/04 12:40:56;;;;;;;8.30;4.72;;;19.10;99.90;;;;;;5081126;28;20025;-35
2022/10/04 12:43:29;;;;;;;9.32;3.85;;;19.10;99.90;;;;;;5086144;28;20028;-34
2022/10/04 12:46:13;;;;;;;8.18;3.95;;;19.30;99.90;;;;;;5083619;28;20107;-39
2022/10/04 12:49:00;;;;;;;9.18;3.83;;;19.40;99.90;;;;;;5093119;28;20480;-33
2022/10/04 12:51:53;;;;;;;10.77;4.28;;;19.60;99.90;;;;;;5083780;28;20032;-35
2022/10/04 12:54:37;;;;;;;6.88;3.30;;;19.70;99.90;;;;;;5085710;28;20035;-35
2022/10/04 12:57:21;;;;;;;11.80;4.03;;;19.90;99.90;;;;;;5085519;28;20028;-32
2022/10/04 12:59:54;;;;;;;8.10;3.65;;;19.90;99.90;;;;;;5085536;28;20028;-53
2022/10/04 13:02:34;;;;;;;5.40;3.40;;;20.00;99.90;;;;;;5088240;28;20032;-39
2022/10/04 13:05:35;;;;;;;13.50;4.45;;;20.00;99.90;;;;;;5083624;28;20089;-37
2022/10/04 13:08:15;;;;;;;8.73;3.90;;;20.10;99.90;;;;;;5085053;28;20032;-34
2022/10/04 13:11:05;;;;;;;9.68;3.53;;;20.10;99.90;;;;;;5084295;28;20424;-32
2022/10/04 13:13:43;;;;;;;13.95;4.38;;;20.20;99.90;;;;;;5086488;28;20073;-37
2022/10/04 13:16:27;;;;;;;7.30;3.45;;;20.20;99.90;;;;;;5085249;28;20463;-39
2022/10/04 13:19:01;;;;;;;10.27;4.13;;;20.30;99.90;;;;;;5088514;28;20024;-34
2022/10/04 13:22:02;;;;;;;8.98;4.00;;;20.40;99.90;;;;;;5085226;28;20028;-36
2022/10/04 13:24:56;;;;;;;12.35;3.65;;;20.50;99.90;;;;;;5016768;28;20489;-34
2022/10/04 13:27:37;;;;;;;3.65;3.10;;;20.50;99.90;;;;;;5078952;28;20505;-40
2022/10/04 13:30:26;;;;;;;13.23;3.60;;;20.50;99.90;;;;;;5083821;28;20248;-37
2022/10/04 13:33:23;;;;;;;11.70;4.68;;;20.40;99.90;;;;;;5083916;28;20077;-35
2022/10/04 13:36:32;;;;;;;3.83;3.40;;;20.40;99.90;;;;;;5084395;28;20514;-37
2022/10/04 13:39:25;;;;;;;8.10;4.07;;;20.30;99.90;;;;;;5005815;28;20406;-39
2022/10/04 13:41:59;;;;;;;9.45;4.25;;;20.30;99.90;;;;;;5007201;28;20560;-33
2022/10/04 13:44:54;;;;;;;7.35;3.42;;;20.40;99.90;;;;;;5064094;28;20145;-36
2022/10/04 13:47:53;;;;;;;9.90;3.95;;;20.40;99.90;;;;;;5077995;28;20618;-31
2022/10/04 13:50:30;;;;;;;6.72;3.63;;;20.40;99.90;;;;;;5080968;28;20051;-34
2022/10/04 13:56:40;;;;;;;9.73;4.03;;;20.10;99.90;;;;;;5088904;28;20039;-34
2022/10/04 13:59:28;;;;;;;6.00;3.78;;;19.90;99.90;;;;;;5080658;28;20632;-40
2022/10/04 14:02:12;;;;;;;10.60;3.40;;;20.00;99.90;;;;;;5080150;28;20035;-36
2022/10/04 14:04:56;;;;;;;6.70;3.88;;;20.00;99.90;;;;;;5090410;28;20176;-39
2022/10/04 14:08:04;;;;;;;7.35;3.72;;;20.10;99.90;;;;;;5082339;28;20492;-38